sensor_id;sensor_type;location;lat;lon;timestamp;P1;durP1;ratioP1;P2;durP2;ratioP2
1366;SDS011;16877;48.810;9.282;2023-04-30T00:00:10;3.80;;;3.00;;
1366;SDS011;16877;48.810;9.282;2023-04-30T00:02:38;6.97;;;3.27;;
1366;SDS011;16877;48.810;9.282;2023-04-30T00:05:06;3.50;;;2.90;;
1366;SDS011;16877;48.810;9.282;2023-04-30T00:07:35;3.27;;;2.73;;
1366;SDS011;16877;48.810;9.282;2023-04-30T00:10:07;4.60;;;3.30;;
1366;SDS011;16877;48.810;9.282;2023-04-30T00:12:35;3.10;;;2.80;;
1366;SDS011;16877;48.810;9.282;2023-04-30T00:15:04;5.27;;;3.20;;
1366;SDS011;16877;48.810;9.282;2023-04-30T00:17:34;3.73;;;3.10;;
1366;SDS011;16877;48.810;9.282;2023-04-30T00:20:02;3.70;;;2.93;;
1366;SDS011;16877;48.810;9.282;2023-04-30T00:22:30;4.37;;;3.60;;
1366;SDS011;16877;48.810;9.282;2023-04-30T00:24:58;3.03;;;2.63;;
1366;SDS011;16877;48.810;9.282;2023-04-30T00:27:25;4.00;;;3.20;;
1366;SDS011;16877;48.810;9.282;2023-04-30T00:29:53;3.50;;;2.80;;
1366;SDS011;16877;48.810;9.282;2023-04-30T00:32:21;3.20;;;2.87;;
1366;SDS011;16877;48.810;9.282;2023-04-30T00:34:50;3.60;;;2.60;;
1366;SDS011;16877;48.810;9.282;2023-04-30T00:37:18;3.80;;;3.20;;
1366;SDS011;16877;48.810;9.282;2023-04-30T00:39:45;4.67;;;3.27;;
1366;SDS011;16877;48.810;9.282;2023-04-30T00:42:13;3.93;;;3.53;;
1366;SDS011;16877;48.810;9.282;2023-04-30T00:44:41;5.43;;;3.83;;
1366;SDS011;16877;48.810;9.282;2023-04-30T00:47:08;4.53;;;3.80;;
1366;SDS011;16877;48.810;9.282;2023-04-30T00:49:36;3.80;;;3.13;;
1366;SDS011;16877;48.810;9.282;2023-04-30T00:52:06;3.83;;;3.43;;
1366;SDS011;16877;48.810;9.282;2023-04-30T00:54:34;5.50;;;2.93;;
1366;SDS011;16877;48.810;9.282;2023-04-30T00:57:03;3.87;;;2.50;;
1366;SDS011;16877;48.810;9.282;2023-04-30T00:59:33;3.90;;;2.43;;
1366;SDS011;16877;48.810;9.282;2023-04-30T01:02:01;4.07;;;3.40;;
1366;SDS011;16877;48.810;9.282;2023-04-30T01:04:29;3.73;;;3.20;;
1366;SDS011;16877;48.810;9.282;2023-04-30T01:06:57;3.93;;;3.00;;
1366;SDS011;16877;48.810;9.282;2023-04-30T01:09:28;3.60;;;3.30;;
1366;SDS011;16877;48.810;9.282;2023-04-30T01:11:59;4.73;;;3.70;;
1366;SDS011;16877;48.810;9.282;2023-04-30T01:14:37;4.27;;;3.70;;
1366;SDS011;16877;48.810;9.282;2023-04-30T01:17:12;4.00;;;3.27;;
1366;SDS011;16877;48.810;9.282;2023-04-30T01:19:46;4.10;;;3.57;;
1366;SDS011;16877;48.810;9.282;2023-04-30T01:22:20;3.80;;;3.40;;
1366;SDS011;16877;48.810;9.282;2023-04-30T01:28:01;5.37;;;3.73;;
1366;SDS011;16877;48.810;9.282;2023-04-30T01:30:31;4.80;;;4.30;;
1366;SDS011;16877;48.810;9.282;2023-04-30T01:33:00;5.47;;;4.77;;
1366;SDS011;16877;48.810;9.282;2023-04-30T01:35:34;4.40;;;3.60;;
1366;SDS011;16877;48.810;9.282;2023-04-30T01:38:27;4.40;;;3.67;;
1366;SDS011;16877;48.810;9.282;2023-04-30T01:41:07;3.97;;;3.50;;
1366;SDS011;16877;48.810;9.282;2023-04-30T01:43:42;4.63;;;3.93;;
1366;SDS011;16877;48.810;9.282;2023-04-30T01:46:17;3.50;;;3.03;;
1366;SDS011;16877;48.810;9.282;2023-04-30T01:48:52;4.60;;;3.90;;
1366;SDS011;16877;48.810;9.282;2023-04-30T01:51:27;5.10;;;4.40;;
1366;SDS011;16877;48.810;9.282;2023-04-30T01:54:00;4.43;;;4.03;;
1366;SDS011;16877;48.810;9.282;2023-04-30T01:56:32;5.63;;;4.80;;
1366;SDS011;16877;48.810;9.282;2023-04-30T01:59:07;5.03;;;4.53;;
1366;SDS011;16877;48.810;9.282;2023-04-30T02:01:35;5.00;;;4.50;;
1366;SDS011;16877;48.810;9.282;2023-04-30T02:04:03;5.00;;;4.50;;
1366;SDS011;16877;48.810;9.282;2023-04-30T02:06:30;5.40;;;4.37;;
1366;SDS011;16877;48.810;9.282;2023-04-30T02:08:58;6.57;;;5.40;;
1366;SDS011;16877;48.810;9.282;2023-04-30T02:11:29;5.17;;;4.63;;
1366;SDS011;16877;48.810;9.282;2023-04-30T02:13:57;5.30;;;4.80;;
1366;SDS011;16877;48.810;9.282;2023-04-30T02:16:26;5.13;;;4.63;;
1366;SDS011;16877;48.810;9.282;2023-04-30T02:18:54;5.90;;;4.77;;
1366;SDS011;16877;48.810;9.282;2023-04-30T02:21:22;5.47;;;4.97;;
1366;SDS011;16877;48.810;9.282;2023-04-30T02:23:51;6.60;;;5.90;;
1366;SDS011;16877;48.810;9.282;2023-04-30T02:26:19;4.60;;;4.10;;
1366;SDS011;16877;48.810;9.282;2023-04-30T02:28:46;5.93;;;5.33;;
1366;SDS011;16877;48.810;9.282;2023-04-30T02:31:15;5.10;;;4.60;;
1366;SDS011;16877;48.810;9.282;2023-04-30T02:33:45;5.47;;;4.97;;
1366;SDS011;16877;48.810;9.282;2023-04-30T02:36:12;5.53;;;4.87;;
1366;SDS011;16877;48.810;9.282;2023-04-30T02:38:41;5.20;;;4.70;;
1366;SDS011;16877;48.810;9.282;2023-04-30T02:41:08;5.40;;;4.80;;
1366;SDS011;16877;48.810;9.282;2023-04-30T02:43:36;6.13;;;4.50;;
1366;SDS011;16877;48.810;9.282;2023-04-30T02:46:04;6.13;;;4.63;;
1366;SDS011;16877;48.810;9.282;2023-04-30T02:48:32;6.10;;;5.50;;
1366;SDS011;16877;48.810;9.282;2023-04-30T02:51:03;5.43;;;4.90;;
1366;SDS011;16877;48.810;9.282;2023-04-30T02:53:30;5.33;;;4.83;;
1366;SDS011;16877;48.810;9.282;2023-04-30T02:55:58;5.37;;;4.87;;
1366;SDS011;16877;48.810;9.282;2023-04-30T02:58:26;5.60;;;4.70;;
1366;SDS011;16877;48.810;9.282;2023-04-30T03:00:53;5.37;;;4.87;;
1366;SDS011;16877;48.810;9.282;2023-04-30T03:03:26;7.07;;;5.60;;
1366;SDS011;16877;48.810;9.282;2023-04-30T03:05:53;5.20;;;4.70;;
1366;SDS011;16877;48.810;9.282;2023-04-30T03:08:25;6.03;;;5.43;;
1366;SDS011;16877;48.810;9.282;2023-04-30T03:10:52;5.30;;;4.80;;
1366;SDS011;16877;48.810;9.282;2023-04-30T03:13:21;5.30;;;4.80;;
1366;SDS011;16877;48.810;9.282;2023-04-30T03:15:55;5.70;;;5.13;;
1366;SDS011;16877;48.810;9.282;2023-04-30T03:18:23;5.20;;;4.70;;
1366;SDS011;16877;48.810;9.282;2023-04-30T03:20:51;5.30;;;4.80;;
1366;SDS011;16877;48.810;9.282;2023-04-30T03:23:18;5.63;;;5.00;;
1366;SDS011;16877;48.810;9.282;2023-04-30T03:25:48;5.90;;;5.30;;
1366;SDS011;16877;48.810;9.282;2023-04-30T03:28:16;4.67;;;4.27;;
1366;SDS011;16877;48.810;9.282;2023-04-30T03:30:43;5.63;;;4.37;;
1366;SDS011;16877;48.810;9.282;2023-04-30T03:33:12;5.33;;;4.83;;
1366;SDS011;16877;48.810;9.282;2023-04-30T03:35:40;5.77;;;5.07;;
1366;SDS011;16877;48.810;9.282;2023-04-30T03:38:08;5.90;;;5.23;;
1366;SDS011;16877;48.810;9.282;2023-04-30T03:40:36;6.10;;;5.47;;
1366;SDS011;16877;48.810;9.282;2023-04-30T03:43:05;5.33;;;4.80;;
1366;SDS011;16877;48.810;9.282;2023-04-30T03:45:33;5.70;;;5.13;;
1366;SDS011;16877;48.810;9.282;2023-04-30T03:48:01;6.07;;;5.47;;
1366;SDS011;16877;48.810;9.282;2023-04-30T03:50:29;4.93;;;4.47;;
1366;SDS011;16877;48.810;9.282;2023-04-30T03:52:57;5.40;;;4.90;;
1366;SDS011;16877;48.810;9.282;2023-04-30T03:55:24;5.83;;;5.23;;
1366;SDS011;16877;48.810;9.282;2023-04-30T03:57:52;5.93;;;5.00;;
1366;SDS011;16877;48.810;9.282;2023-04-30T04:00:22;6.03;;;5.40;;
1366;SDS011;16877;48.810;9.282;2023-04-30T04:02:49;7.17;;;5.07;;
1366;SDS011;16877;48.810;9.282;2023-04-30T04:05:17;4.90;;;4.40;;
1366;SDS011;16877;48.810;9.282;2023-04-30T04:07:45;4.90;;;4.37;;
1366;SDS011;16877;48.810;9.282;2023-04-30T04:10:13;5.73;;;5.13;;
1366;SDS011;16877;48.810;9.282;2023-04-30T04:12:40;4.90;;;4.33;;
1366;SDS011;16877;48.810;9.282;2023-04-30T04:15:08;4.43;;;4.03;;
1366;SDS011;16877;48.810;9.282;2023-04-30T04:17:38;5.37;;;4.87;;
1366;SDS011;16877;48.810;9.282;2023-04-30T04:20:08;6.00;;;5.20;;
1366;SDS011;16877;48.810;9.282;2023-04-30T04:22:38;5.10;;;4.60;;
1366;SDS011;16877;48.810;9.282;2023-04-30T04:25:12;5.93;;;5.00;;
1366;SDS011;16877;48.810;9.282;2023-04-30T04:27:40;5.30;;;4.80;;
1366;SDS011;16877;48.810;9.282;2023-04-30T04:30:21;5.50;;;5.00;;
1366;SDS011;16877;48.810;9.282;2023-04-30T04:32:53;5.10;;;4.60;;
1366;SDS011;16877;48.810;9.282;2023-04-30T04:35:35;6.00;;;5.30;;
1366;SDS011;16877;48.810;9.282;2023-04-30T04:38:04;5.60;;;5.00;;
1366;SDS011;16877;48.810;9.282;2023-04-30T04:40:57;5.27;;;4.77;;
1366;SDS011;16877;48.810;9.282;2023-04-30T04:43:40;4.63;;;4.20;;
1366;SDS011;16877;48.810;9.282;2023-04-30T04:46:08;5.10;;;4.10;;
1366;SDS011;16877;48.810;9.282;2023-04-30T04:48:44;5.10;;;4.53;;
1366;SDS011;16877;48.810;9.282;2023-04-30T04:51:13;5.53;;;5.00;;
1366;SDS011;16877;48.810;9.282;2023-04-30T04:53:43;5.37;;;4.87;;
1366;SDS011;16877;48.810;9.282;2023-04-30T04:56:15;4.87;;;4.43;;
1366;SDS011;16877;48.810;9.282;2023-04-30T04:58:45;8.63;;;5.23;;
1366;SDS011;16877;48.810;9.282;2023-04-30T05:01:15;6.50;;;5.10;;
1366;SDS011;16877;48.810;9.282;2023-04-30T05:03:44;5.00;;;4.43;;
1366;SDS011;16877;48.810;9.282;2023-04-30T05:06:23;6.30;;;4.60;;
1366;SDS011;16877;48.810;9.282;2023-04-30T05:08:52;6.30;;;5.43;;
1366;SDS011;16877;48.810;9.282;2023-04-30T05:11:29;5.73;;;5.13;;
1366;SDS011;16877;48.810;9.282;2023-04-30T05:14:19;5.37;;;4.53;;
1366;SDS011;16877;48.810;9.282;2023-04-30T05:17:00;4.97;;;4.47;;
1366;SDS011;16877;48.810;9.282;2023-04-30T05:19:35;5.90;;;4.53;;
1366;SDS011;16877;48.810;9.282;2023-04-30T05:22:03;5.33;;;4.57;;
1366;SDS011;16877;48.810;9.282;2023-04-30T05:24:40;5.57;;;4.97;;
1366;SDS011;16877;48.810;9.282;2023-04-30T05:27:28;5.10;;;4.60;;
1366;SDS011;16877;48.810;9.282;2023-04-30T05:29:57;5.20;;;4.67;;
1366;SDS011;16877;48.810;9.282;2023-04-30T05:32:37;4.40;;;4.00;;
1366;SDS011;16877;48.810;9.282;2023-04-30T05:35:08;6.03;;;5.43;;
1366;SDS011;16877;48.810;9.282;2023-04-30T05:37:40;5.13;;;4.53;;
1366;SDS011;16877;48.810;9.282;2023-04-30T05:40:10;5.73;;;5.00;;
1366;SDS011;16877;48.810;9.282;2023-04-30T05:42:41;6.10;;;5.03;;
1366;SDS011;16877;48.810;9.282;2023-04-30T05:45:27;4.93;;;4.43;;
1366;SDS011;16877;48.810;9.282;2023-04-30T05:48:10;5.63;;;4.30;;
1366;SDS011;16877;48.810;9.282;2023-04-30T05:50:39;4.60;;;4.20;;
1366;SDS011;16877;48.810;9.282;2023-04-30T05:53:07;5.27;;;4.77;;
1366;SDS011;16877;48.810;9.282;2023-04-30T05:55:35;6.30;;;4.47;;
1366;SDS011;16877;48.810;9.282;2023-04-30T05:58:05;5.77;;;5.27;;
1366;SDS011;16877;48.810;9.282;2023-04-30T06:00:57;5.10;;;4.43;;
1366;SDS011;16877;48.810;9.282;2023-04-30T06:03:25;5.10;;;4.60;;
1366;SDS011;16877;48.810;9.282;2023-04-30T06:06:06;6.00;;;5.07;;
1366;SDS011;16877;48.810;9.282;2023-04-30T06:08:33;5.23;;;4.73;;
1366;SDS011;16877;48.810;9.282;2023-04-30T06:11:05;5.50;;;5.00;;
1366;SDS011;16877;48.810;9.282;2023-04-30T06:13:33;5.83;;;5.23;;
1366;SDS011;16877;48.810;9.282;2023-04-30T06:16:03;5.60;;;5.07;;
1366;SDS011;16877;48.810;9.282;2023-04-30T06:18:32;5.20;;;4.70;;
1366;SDS011;16877;48.810;9.282;2023-04-30T06:27:24;6.67;;;4.77;;
1366;SDS011;16877;48.810;9.282;2023-04-30T06:30:20;6.50;;;4.70;;
1366;SDS011;16877;48.810;9.282;2023-04-30T06:32:55;7.50;;;5.07;;
1366;SDS011;16877;48.810;9.282;2023-04-30T06:35:23;5.13;;;4.63;;
1366;SDS011;16877;48.810;9.282;2023-04-30T06:37:50;5.50;;;4.97;;
1366;SDS011;16877;48.810;9.282;2023-04-30T06:40:18;5.40;;;4.90;;
1366;SDS011;16877;48.810;9.282;2023-04-30T06:42:48;6.10;;;5.23;;
1366;SDS011;16877;48.810;9.282;2023-04-30T06:45:26;4.97;;;4.47;;
1366;SDS011;16877;48.810;9.282;2023-04-30T06:47:54;5.70;;;5.10;;
1366;SDS011;16877;48.810;9.282;2023-04-30T06:50:21;6.00;;;4.70;;
1366;SDS011;16877;48.810;9.282;2023-04-30T06:52:50;5.23;;;4.73;;
1366;SDS011;16877;48.810;9.282;2023-04-30T06:55:19;4.80;;;4.23;;
1366;SDS011;16877;48.810;9.282;2023-04-30T06:57:48;5.40;;;4.53;;
1366;SDS011;16877;48.810;9.282;2023-04-30T07:00:16;6.80;;;4.53;;
1366;SDS011;16877;48.810;9.282;2023-04-30T07:02:44;5.10;;;4.60;;
1366;SDS011;16877;48.810;9.282;2023-04-30T07:05:16;6.40;;;4.87;;
1366;SDS011;16877;48.810;9.282;2023-04-30T07:07:43;5.83;;;5.30;;
1366;SDS011;16877;48.810;9.282;2023-04-30T07:10:11;4.97;;;4.47;;
1366;SDS011;16877;48.810;9.282;2023-04-30T07:12:38;6.10;;;5.50;;
1366;SDS011;16877;48.810;9.282;2023-04-30T07:15:09;5.70;;;5.10;;
1366;SDS011;16877;48.810;9.282;2023-04-30T07:17:37;5.80;;;5.07;;
1366;SDS011;16877;48.810;9.282;2023-04-30T07:20:06;5.13;;;4.67;;
1366;SDS011;16877;48.810;9.282;2023-04-30T07:22:35;5.07;;;4.50;;
1366;SDS011;16877;48.810;9.282;2023-04-30T07:25:02;4.50;;;4.10;;
1366;SDS011;16877;48.810;9.282;2023-04-30T07:27:30;5.30;;;4.80;;
1366;SDS011;16877;48.810;9.282;2023-04-30T07:29:58;4.20;;;3.80;;
1366;SDS011;16877;48.810;9.282;2023-04-30T07:32:28;4.87;;;4.37;;
1366;SDS011;16877;48.810;9.282;2023-04-30T07:34:56;5.00;;;4.50;;
1366;SDS011;16877;48.810;9.282;2023-04-30T07:37:23;4.20;;;3.80;;
1366;SDS011;16877;48.810;9.282;2023-04-30T07:39:52;4.93;;;4.43;;
1366;SDS011;16877;48.810;9.282;2023-04-30T07:42:19;6.23;;;4.43;;
1366;SDS011;16877;48.810;9.282;2023-04-30T07:45:01;4.70;;;3.80;;
1366;SDS011;16877;48.810;9.282;2023-04-30T07:47:31;4.63;;;4.10;;
1366;SDS011;16877;48.810;9.282;2023-04-30T07:49:58;4.23;;;3.83;;
1366;SDS011;16877;48.810;9.282;2023-04-30T07:52:26;4.20;;;3.57;;
1366;SDS011;16877;48.810;9.282;2023-04-30T07:54:53;4.73;;;4.30;;
1366;SDS011;16877;48.810;9.282;2023-04-30T07:57:21;5.60;;;4.13;;
1366;SDS011;16877;48.810;9.282;2023-04-30T07:59:50;4.43;;;4.03;;
1366;SDS011;16877;48.810;9.282;2023-04-30T08:02:18;4.77;;;4.20;;
1366;SDS011;16877;48.810;9.282;2023-04-30T08:04:47;4.77;;;3.87;;
1366;SDS011;16877;48.810;9.282;2023-04-30T08:07:15;3.40;;;3.07;;
1366;SDS011;16877;48.810;9.282;2023-04-30T08:09:47;3.53;;;3.23;;
1366;SDS011;16877;48.810;9.282;2023-04-30T08:12:19;4.43;;;3.60;;
1366;SDS011;16877;48.810;9.282;2023-04-30T08:14:47;3.70;;;3.10;;
1366;SDS011;16877;48.810;9.282;2023-04-30T08:17:15;4.60;;;4.10;;
1366;SDS011;16877;48.810;9.282;2023-04-30T08:19:42;7.27;;;4.10;;
1366;SDS011;16877;48.810;9.282;2023-04-30T08:22:11;4.67;;;4.27;;
1366;SDS011;16877;48.810;9.282;2023-04-30T08:24:39;3.87;;;3.40;;
1366;SDS011;16877;48.810;9.282;2023-04-30T08:27:07;6.87;;;3.60;;
1366;SDS011;16877;48.810;9.282;2023-04-30T08:29:35;3.50;;;3.20;;
1366;SDS011;16877;48.810;9.282;2023-04-30T08:32:05;4.53;;;3.50;;
1366;SDS011;16877;48.810;9.282;2023-04-30T08:34:56;3.33;;;3.03;;
1366;SDS011;16877;48.810;9.282;2023-04-30T08:37:25;4.47;;;3.90;;
1366;SDS011;16877;48.810;9.282;2023-04-30T08:40:08;3.33;;;3.00;;
1366;SDS011;16877;48.810;9.282;2023-04-30T08:42:40;3.17;;;2.87;;
1366;SDS011;16877;48.810;9.282;2023-04-30T08:45:19;3.10;;;2.80;;
1366;SDS011;16877;48.810;9.282;2023-04-30T08:47:48;4.07;;;2.57;;
1366;SDS011;16877;48.810;9.282;2023-04-30T08:50:22;4.17;;;2.80;;
1366;SDS011;16877;48.810;9.282;2023-04-30T08:52:51;3.53;;;2.60;;
1366;SDS011;16877;48.810;9.282;2023-04-30T08:55:20;2.60;;;2.37;;
1366;SDS011;16877;48.810;9.282;2023-04-30T08:57:50;3.60;;;2.37;;
1366;SDS011;16877;48.810;9.282;2023-04-30T09:00:20;3.00;;;2.50;;
1366;SDS011;16877;48.810;9.282;2023-04-30T09:02:49;3.67;;;2.60;;
1366;SDS011;16877;48.810;9.282;2023-04-30T09:05:17;3.10;;;2.70;;
1366;SDS011;16877;48.810;9.282;2023-04-30T09:07:45;2.87;;;2.27;;
1366;SDS011;16877;48.810;9.282;2023-04-30T09:10:24;3.20;;;2.40;;
1366;SDS011;16877;48.810;9.282;2023-04-30T09:12:59;2.50;;;2.00;;
1366;SDS011;16877;48.810;9.282;2023-04-30T09:15:30;3.47;;;2.40;;
1366;SDS011;16877;48.810;9.282;2023-04-30T09:18:07;3.20;;;2.53;;
1366;SDS011;16877;48.810;9.282;2023-04-30T09:20:53;2.90;;;2.10;;
1366;SDS011;16877;48.810;9.282;2023-04-30T09:23:23;3.63;;;1.97;;
1366;SDS011;16877;48.810;9.282;2023-04-30T09:26:02;2.73;;;1.97;;
1366;SDS011;16877;48.810;9.282;2023-04-30T09:28:31;3.27;;;2.17;;
1366;SDS011;16877;48.810;9.282;2023-04-30T09:31:03;3.30;;;2.20;;
1366;SDS011;16877;48.810;9.282;2023-04-30T09:33:46;3.47;;;1.90;;
1366;SDS011;16877;48.810;9.282;2023-04-30T09:36:14;2.53;;;2.17;;
1366;SDS011;16877;48.810;9.282;2023-04-30T09:39:05;4.93;;;1.93;;
1366;SDS011;16877;48.810;9.282;2023-04-30T09:41:34;3.53;;;2.37;;
1366;SDS011;16877;48.810;9.282;2023-04-30T09:44:02;3.13;;;2.00;;
1366;SDS011;16877;48.810;9.282;2023-04-30T09:46:31;2.90;;;1.90;;
1366;SDS011;16877;48.810;9.282;2023-04-30T09:49:03;2.60;;;2.23;;
1366;SDS011;16877;48.810;9.282;2023-04-30T09:51:37;4.00;;;2.50;;
1366;SDS011;16877;48.810;9.282;2023-04-30T09:54:19;2.40;;;1.60;;
1366;SDS011;16877;48.810;9.282;2023-04-30T09:56:53;2.67;;;1.83;;
1366;SDS011;16877;48.810;9.282;2023-04-30T09:59:24;2.63;;;1.80;;
1366;SDS011;16877;48.810;9.282;2023-04-30T10:01:55;3.27;;;2.07;;
1366;SDS011;16877;48.810;9.282;2023-04-30T10:04:27;2.23;;;1.60;;
1366;SDS011;16877;48.810;9.282;2023-04-30T10:06:59;2.67;;;1.60;;
1366;SDS011;16877;48.810;9.282;2023-04-30T10:09:32;2.90;;;1.93;;
1366;SDS011;16877;48.810;9.282;2023-04-30T10:12:12;3.37;;;2.13;;
1366;SDS011;16877;48.810;9.282;2023-04-30T10:14:42;2.67;;;1.60;;
1366;SDS011;16877;48.810;9.282;2023-04-30T10:17:17;2.93;;;1.97;;
1366;SDS011;16877;48.810;9.282;2023-04-30T10:19:51;3.57;;;2.40;;
1366;SDS011;16877;48.810;9.282;2023-04-30T10:22:32;4.40;;;2.50;;
1366;SDS011;16877;48.810;9.282;2023-04-30T10:25:00;3.03;;;2.30;;
1366;SDS011;16877;48.810;9.282;2023-04-30T10:27:30;2.30;;;1.40;;
1366;SDS011;16877;48.810;9.282;2023-04-30T10:29:59;2.73;;;2.03;;
1366;SDS011;16877;48.810;9.282;2023-04-30T10:32:29;3.03;;;2.03;;
1366;SDS011;16877;48.810;9.282;2023-04-30T10:35:06;2.90;;;1.93;;
1366;SDS011;16877;48.810;9.282;2023-04-30T10:37:39;3.10;;;2.00;;
1366;SDS011;16877;48.810;9.282;2023-04-30T10:40:14;3.20;;;2.20;;
1366;SDS011;16877;48.810;9.282;2023-04-30T10:42:46;3.37;;;2.20;;
1366;SDS011;16877;48.810;9.282;2023-04-30T10:45:14;3.10;;;2.50;;
1366;SDS011;16877;48.810;9.282;2023-04-30T10:47:42;3.33;;;2.37;;
1366;SDS011;16877;48.810;9.282;2023-04-30T10:50:11;2.40;;;2.00;;
1366;SDS011;16877;48.810;9.282;2023-04-30T10:52:39;3.10;;;2.43;;
1366;SDS011;16877;48.810;9.282;2023-04-30T10:55:07;2.97;;;2.30;;
1366;SDS011;16877;48.810;9.282;2023-04-30T10:57:41;2.70;;;1.93;;
1366;SDS011;16877;48.810;9.282;2023-04-30T11:00:18;3.37;;;2.07;;
1366;SDS011;16877;48.810;9.282;2023-04-30T11:02:52;3.20;;;2.47;;
1366;SDS011;16877;48.810;9.282;2023-04-30T11:05:33;3.20;;;2.10;;
1366;SDS011;16877;48.810;9.282;2023-04-30T11:08:03;2.40;;;2.17;;
1366;SDS011;16877;48.810;9.282;2023-04-30T11:10:32;2.40;;;2.10;;
1366;SDS011;16877;48.810;9.282;2023-04-30T11:13:02;3.03;;;2.50;;
1366;SDS011;16877;48.810;9.282;2023-04-30T11:15:34;2.47;;;2.17;;
1366;SDS011;16877;48.810;9.282;2023-04-30T11:18:07;3.73;;;2.70;;
1366;SDS011;16877;48.810;9.282;2023-04-30T11:20:38;2.83;;;2.27;;
1366;SDS011;16877;48.810;9.282;2023-04-30T11:23:07;3.43;;;2.47;;
1366;SDS011;16877;48.810;9.282;2023-04-30T11:25:39;2.83;;;2.10;;
1366;SDS011;16877;48.810;9.282;2023-04-30T11:28:22;4.00;;;2.60;;
1366;SDS011;16877;48.810;9.282;2023-04-30T11:31:07;2.87;;;2.00;;
1366;SDS011;16877;48.810;9.282;2023-04-30T11:33:34;3.57;;;2.17;;
1366;SDS011;16877;48.810;9.282;2023-04-30T11:36:02;3.27;;;2.50;;
1366;SDS011;16877;48.810;9.282;2023-04-30T11:38:30;4.80;;;2.47;;
1366;SDS011;16877;48.810;9.282;2023-04-30T11:41:01;3.73;;;2.20;;
1366;SDS011;16877;48.810;9.282;2023-04-30T11:43:30;3.70;;;2.10;;
1366;SDS011;16877;48.810;9.282;2023-04-30T11:45:59;3.37;;;2.50;;
1366;SDS011;16877;48.810;9.282;2023-04-30T11:48:33;4.23;;;2.70;;
1366;SDS011;16877;48.810;9.282;2023-04-30T11:51:02;3.27;;;2.53;;
1366;SDS011;16877;48.810;9.282;2023-04-30T11:53:45;3.70;;;2.20;;
1366;SDS011;16877;48.810;9.282;2023-04-30T11:56:13;2.90;;;2.07;;
1366;SDS011;16877;48.810;9.282;2023-04-30T11:58:45;2.83;;;1.90;;
1366;SDS011;16877;48.810;9.282;2023-04-30T12:01:13;2.77;;;1.90;;
1366;SDS011;16877;48.810;9.282;2023-04-30T12:03:42;4.33;;;2.37;;
1366;SDS011;16877;48.810;9.282;2023-04-30T12:06:25;3.13;;;1.77;;
1366;SDS011;16877;48.810;9.282;2023-04-30T12:08:54;3.70;;;1.93;;
1366;SDS011;16877;48.810;9.282;2023-04-30T12:11:24;3.83;;;2.10;;
1366;SDS011;16877;48.810;9.282;2023-04-30T12:13:52;2.60;;;1.80;;
1366;SDS011;16877;48.810;9.282;2023-04-30T12:16:39;2.97;;;1.60;;
1366;SDS011;16877;48.810;9.282;2023-04-30T12:19:11;6.10;;;2.30;;
1366;SDS011;16877;48.810;9.282;2023-04-30T12:21:40;3.30;;;2.37;;
1366;SDS011;16877;48.810;9.282;2023-04-30T12:24:10;3.53;;;2.43;;
1366;SDS011;16877;48.810;9.282;2023-04-30T12:26:38;3.30;;;2.33;;
1366;SDS011;16877;48.810;9.282;2023-04-30T12:29:07;2.93;;;1.90;;
1366;SDS011;16877;48.810;9.282;2023-04-30T12:31:36;4.00;;;2.33;;
1366;SDS011;16877;48.810;9.282;2023-04-30T12:34:08;6.17;;;2.27;;
1366;SDS011;16877;48.810;9.282;2023-04-30T12:36:39;4.20;;;2.20;;
1366;SDS011;16877;48.810;9.282;2023-04-30T12:39:09;3.10;;;2.50;;
1366;SDS011;16877;48.810;9.282;2023-04-30T12:41:41;2.83;;;2.03;;
1366;SDS011;16877;48.810;9.282;2023-04-30T12:44:13;7.07;;;2.27;;
1366;SDS011;16877;48.810;9.282;2023-04-30T12:46:43;4.30;;;2.10;;
1366;SDS011;16877;48.810;9.282;2023-04-30T12:49:22;3.57;;;1.80;;
1366;SDS011;16877;48.810;9.282;2023-04-30T12:51:55;2.90;;;1.80;;
1366;SDS011;16877;48.810;9.282;2023-04-30T12:54:24;3.60;;;2.43;;
1366;SDS011;16877;48.810;9.282;2023-04-30T12:56:57;2.47;;;2.17;;
1366;SDS011;16877;48.810;9.282;2023-04-30T12:59:26;4.63;;;2.13;;
1366;SDS011;16877;48.810;9.282;2023-04-30T13:02:10;2.20;;;1.67;;
1366;SDS011;16877;48.810;9.282;2023-04-30T13:04:42;2.60;;;1.90;;
1366;SDS011;16877;48.810;9.282;2023-04-30T13:07:21;3.13;;;2.10;;
1366;SDS011;16877;48.810;9.282;2023-04-30T13:13:05;2.60;;;1.87;;
1366;SDS011;16877;48.810;9.282;2023-04-30T13:15:33;2.50;;;2.10;;
1366;SDS011;16877;48.810;9.282;2023-04-30T13:18:11;4.57;;;2.07;;
1366;SDS011;16877;48.810;9.282;2023-04-30T13:20:49;3.10;;;1.97;;
1366;SDS011;16877;48.810;9.282;2023-04-30T13:23:17;2.53;;;1.80;;
1366;SDS011;16877;48.810;9.282;2023-04-30T13:25:49;4.50;;;2.20;;
1366;SDS011;16877;48.810;9.282;2023-04-30T13:28:24;2.57;;;1.80;;
1366;SDS011;16877;48.810;9.282;2023-04-30T13:30:55;3.03;;;2.10;;
1366;SDS011;16877;48.810;9.282;2023-04-30T13:33:29;2.67;;;2.10;;
1366;SDS011;16877;48.810;9.282;2023-04-30T13:35:56;2.83;;;2.13;;
1366;SDS011;16877;48.810;9.282;2023-04-30T13:38:27;2.60;;;2.00;;
1366;SDS011;16877;48.810;9.282;2023-04-30T13:40:57;2.60;;;1.87;;
1366;SDS011;16877;48.810;9.282;2023-04-30T13:43:25;2.43;;;1.63;;
1366;SDS011;16877;48.810;9.282;2023-04-30T13:45:53;2.70;;;1.87;;
1366;SDS011;16877;48.810;9.282;2023-04-30T13:48:22;2.40;;;1.53;;
1366;SDS011;16877;48.810;9.282;2023-04-30T13:50:50;2.20;;;1.63;;
1366;SDS011;16877;48.810;9.282;2023-04-30T13:53:18;3.80;;;1.73;;
1366;SDS011;16877;48.810;9.282;2023-04-30T13:55:46;2.87;;;2.00;;
1366;SDS011;16877;48.810;9.282;2023-04-30T13:58:16;3.33;;;1.87;;
1366;SDS011;16877;48.810;9.282;2023-04-30T14:00:43;2.70;;;2.10;;
1366;SDS011;16877;48.810;9.282;2023-04-30T14:03:11;5.33;;;2.50;;
1366;SDS011;16877;48.810;9.282;2023-04-30T14:05:39;3.87;;;1.63;;
1366;SDS011;16877;48.810;9.282;2023-04-30T14:08:07;2.70;;;2.00;;
1366;SDS011;16877;48.810;9.282;2023-04-30T14:10:35;3.70;;;2.40;;
1366;SDS011;16877;48.810;9.282;2023-04-30T14:13:03;2.70;;;1.80;;
1366;SDS011;16877;48.810;9.282;2023-04-30T14:15:43;4.63;;;1.87;;
1366;SDS011;16877;48.810;9.282;2023-04-30T14:18:16;3.53;;;1.73;;
1366;SDS011;16877;48.810;9.282;2023-04-30T14:20:51;3.20;;;1.80;;
1366;SDS011;16877;48.810;9.282;2023-04-30T14:23:20;2.77;;;2.00;;
1366;SDS011;16877;48.810;9.282;2023-04-30T14:25:48;2.67;;;1.67;;
1366;SDS011;16877;48.810;9.282;2023-04-30T14:28:16;4.63;;;2.17;;
1366;SDS011;16877;48.810;9.282;2023-04-30T14:30:45;2.90;;;1.93;;
1366;SDS011;16877;48.810;9.282;2023-04-30T14:33:13;2.50;;;1.90;;
1366;SDS011;16877;48.810;9.282;2023-04-30T14:35:47;2.80;;;1.77;;
1366;SDS011;16877;48.810;9.282;2023-04-30T14:38:14;3.33;;;1.80;;
1366;SDS011;16877;48.810;9.282;2023-04-30T14:40:44;2.97;;;2.20;;
1366;SDS011;16877;48.810;9.282;2023-04-30T14:43:12;2.90;;;1.93;;
1366;SDS011;16877;48.810;9.282;2023-04-30T14:45:39;2.47;;;1.60;;
1366;SDS011;16877;48.810;9.282;2023-04-30T14:48:10;3.10;;;2.40;;
1366;SDS011;16877;48.810;9.282;2023-04-30T14:50:38;3.03;;;2.33;;
1366;SDS011;16877;48.810;9.282;2023-04-30T14:53:05;2.97;;;2.20;;
1366;SDS011;16877;48.810;9.282;2023-04-30T14:55:35;2.60;;;2.00;;
1366;SDS011;16877;48.810;9.282;2023-04-30T14:58:02;4.13;;;2.30;;
1366;SDS011;16877;48.810;9.282;2023-04-30T15:00:30;3.43;;;2.30;;
1366;SDS011;16877;48.810;9.282;2023-04-30T15:02:58;2.57;;;2.20;;
1366;SDS011;16877;48.810;9.282;2023-04-30T15:05:27;2.73;;;2.30;;
1366;SDS011;16877;48.810;9.282;2023-04-30T15:07:56;3.30;;;2.57;;
1366;SDS011;16877;48.810;9.282;2023-04-30T15:10:23;4.67;;;2.40;;
1366;SDS011;16877;48.810;9.282;2023-04-30T15:12:51;2.60;;;1.90;;
1366;SDS011;16877;48.810;9.282;2023-04-30T15:15:18;3.80;;;2.17;;
1366;SDS011;16877;48.810;9.282;2023-04-30T15:17:52;2.73;;;2.10;;
1366;SDS011;16877;48.810;9.282;2023-04-30T15:20:19;3.10;;;2.47;;
1366;SDS011;16877;48.810;9.282;2023-04-30T15:22:50;3.90;;;2.67;;
1366;SDS011;16877;48.810;9.282;2023-04-30T15:25:19;4.23;;;3.00;;
1366;SDS011;16877;48.810;9.282;2023-04-30T15:27:48;5.67;;;2.50;;
1366;SDS011;16877;48.810;9.282;2023-04-30T15:30:15;2.77;;;2.13;;
1366;SDS011;16877;48.810;9.282;2023-04-30T15:32:43;2.80;;;2.10;;
1366;SDS011;16877;48.810;9.282;2023-04-30T15:35:12;2.50;;;2.27;;